sensor_id;sensor_type;location;lat;lon;timestamp;temperature;humidity
10192;DHT22;17580;50.850;4.504;2023-05-27T00:00:20;13.20;11.20
10192;DHT22;17580;50.850;4.504;2023-05-27T00:02:47;13.10;11.40
10192;DHT22;17580;50.850;4.504;2023-05-27T00:05:17;13.10;11.40
10192;DHT22;17580;50.850;4.504;2023-05-27T00:07:44;13.00;11.60
10192;DHT22;17580;50.850;4.504;2023-05-27T00:10:11;13.00;11.80
10192;DHT22;17580;50.850;4.504;2023-05-27T00:12:38;13.00;12.10
10192;DHT22;17580;50.850;4.504;2023-05-27T00:15:06;12.90;11.90
10192;DHT22;17580;50.850;4.504;2023-05-27T00:17:34;12.90;12.60
10192;DHT22;17580;50.850;4.504;2023-05-27T00:20:01;12.90;12.30
10192;DHT22;17580;50.850;4.504;2023-05-27T00:22:34;12.80;12.20
10192;DHT22;17580;50.850;4.504;2023-05-27T00:25:02;12.80;12.40
10192;DHT22;17580;50.850;4.504;2023-05-27T00:27:29;12.80;13.00
10192;DHT22;17580;50.850;4.504;2023-05-27T00:29:56;12.70;13.20
10192;DHT22;17580;50.850;4.504;2023-05-27T00:32:24;12.70;13.40
10192;DHT22;17580;50.850;4.504;2023-05-27T00:34:51;12.60;13.20
10192;DHT22;17580;50.850;4.504;2023-05-27T00:37:18;12.60;13.60
10192;DHT22;17580;50.850;4.504;2023-05-27T00:39:46;12.60;13.80
10192;DHT22;17580;50.850;4.504;2023-05-27T00:42:13;12.50;14.00
10192;DHT22;17580;50.850;4.504;2023-05-27T00:44:40;12.60;13.80
10192;DHT22;17580;50.850;4.504;2023-05-27T00:47:07;12.50;13.70
10192;DHT22;17580;50.850;4.504;2023-05-27T00:49:35;12.50;13.80
10192;DHT22;17580;50.850;4.504;2023-05-27T00:52:02;12.50;14.60
10192;DHT22;17580;50.850;4.504;2023-05-27T00:54:30;12.40;14.50
10192;DHT22;17580;50.850;4.504;2023-05-27T00:57:00;12.40;14.30
10192;DHT22;17580;50.850;4.504;2023-05-27T00:59:28;12.30;14.70
10192;DHT22;17580;50.850;4.504;2023-05-27T01:01:55;12.30;14.90
10192;DHT22;17580;50.850;4.504;2023-05-27T01:04:22;12.30;15.10
10192;DHT22;17580;50.850;4.504;2023-05-27T01:06:55;12.30;15.00
10192;DHT22;17580;50.850;4.504;2023-05-27T01:09:30;12.30;15.10
10192;DHT22;17580;50.850;4.504;2023-05-27T01:12:06;12.20;15.70
10192;DHT22;17580;50.850;4.504;2023-05-27T01:14:36;12.20;15.40
10192;DHT22;17580;50.850;4.504;2023-05-27T01:17:05;12.10;16.00
10192;DHT22;17580;50.850;4.504;2023-05-27T01:19:34;12.10;16.20
10192;DHT22;17580;50.850;4.504;2023-05-27T01:22:03;12.00;15.90
10192;DHT22;17580;50.850;4.504;2023-05-27T01:24:32;12.00;17.60
10192;DHT22;17580;50.850;4.504;2023-05-27T01:27:00;12.00;16.90
10192;DHT22;17580;50.850;4.504;2023-05-27T01:29:29;11.90;16.70
10192;DHT22;17580;50.850;4.504;2023-05-27T01:32:02;11.90;17.50
10192;DHT22;17580;50.850;4.504;2023-05-27T01:34:36;11.90;16.90
10192;DHT22;17580;50.850;4.504;2023-05-27T01:37:07;11.90;17.00
10192;DHT22;17580;50.850;4.504;2023-05-27T01:39:37;11.90;17.20
10192;DHT22;17580;50.850;4.504;2023-05-27T01:42:05;11.80;17.50
10192;DHT22;17580;50.850;4.504;2023-05-27T01:44:33;11.80;17.50
10192;DHT22;17580;50.850;4.504;2023-05-27T01:47:01;11.70;17.80
10192;DHT22;17580;50.850;4.504;2023-05-27T01:49:29;11.70;18.10
10192;DHT22;17580;50.850;4.504;2023-05-27T01:51:56;11.60;18.00
10192;DHT22;17580;50.850;4.504;2023-05-27T01:54:23;11.60;18.40
10192;DHT22;17580;50.850;4.504;2023-05-27T01:56:52;11.50;18.60
10192;DHT22;17580;50.850;4.504;2023-05-27T01:59:19;11.50;19.10
10192;DHT22;17580;50.850;4.504;2023-05-27T02:01:46;11.40;19.20
10192;DHT22;17580;50.850;4.504;2023-05-27T02:04:13;11.40;19.50
10192;DHT22;17580;50.850;4.504;2023-05-27T02:06:40;11.30;19.70
10192;DHT22;17580;50.850;4.504;2023-05-27T02:09:07;11.30;19.70
10192;DHT22;17580;50.850;4.504;2023-05-27T02:11:38;11.20;20.00
10192;DHT22;17580;50.850;4.504;2023-05-27T02:14:06;11.20;20.20
10192;DHT22;17580;50.850;4.504;2023-05-27T02:16:34;11.30;20.40
10192;DHT22;17580;50.850;4.504;2023-05-27T02:19:02;11.20;20.40
10192;DHT22;17580;50.850;4.504;2023-05-27T02:21:30;11.20;20.70
10192;DHT22;17580;50.850;4.504;2023-05-27T02:23:57;11.20;21.20
10192;DHT22;17580;50.850;4.504;2023-05-27T02:26:24;11.10;21.10
10192;DHT22;17580;50.850;4.504;2023-05-27T02:28:51;11.10;21.30
10192;DHT22;17580;50.850;4.504;2023-05-27T02:31:20;11.10;21.50
10192;DHT22;17580;50.850;4.504;2023-05-27T02:33:47;11.00;21.60
10192;DHT22;17580;50.850;4.504;2023-05-27T02:36:15;11.00;21.80
10192;DHT22;17580;50.850;4.504;2023-05-27T02:38:42;11.00;21.90
10192;DHT22;17580;50.850;4.504;2023-05-27T02:41:10;11.00;22.20
10192;DHT22;17580;50.850;4.504;2023-05-27T02:43:37;11.00;22.30
10192;DHT22;17580;50.850;4.504;2023-05-27T02:46:04;10.90;22.50
10192;DHT22;17580;50.850;4.504;2023-05-27T02:48:33;10.80;22.70
10192;DHT22;17580;50.850;4.504;2023-05-27T02:51:00;10.80;22.90
10192;DHT22;17580;50.850;4.504;2023-05-27T02:53:27;10.70;23.30
10192;DHT22;17580;50.850;4.504;2023-05-27T02:55:54;10.70;23.80
10192;DHT22;17580;50.850;4.504;2023-05-27T02:58:21;10.70;23.80
10192;DHT22;17580;50.850;4.504;2023-05-27T03:00:48;10.70;24.20
10192;DHT22;17580;50.850;4.504;2023-05-27T03:03:15;10.60;25.10
10192;DHT22;17580;50.850;4.504;2023-05-27T03:05:44;10.60;26.20
10192;DHT22;17580;50.850;4.504;2023-05-27T03:08:11;10.60;25.50
10192;DHT22;17580;50.850;4.504;2023-05-27T03:10:38;10.60;25.30
10192;DHT22;17580;50.850;4.504;2023-05-27T03:13:05;10.60;25.60
10192;DHT22;17580;50.850;4.504;2023-05-27T03:15:32;10.60;25.70
10192;DHT22;17580;50.850;4.504;2023-05-27T03:18:00;10.50;25.60
10192;DHT22;17580;50.850;4.504;2023-05-27T03:20:29;10.50;25.90
10192;DHT22;17580;50.850;4.504;2023-05-27T03:22:57;10.50;26.00
10192;DHT22;17580;50.850;4.504;2023-05-27T03:25:24;10.40;25.90
10192;DHT22;17580;50.850;4.504;2023-05-27T03:27:51;10.40;26.20
10192;DHT22;17580;50.850;4.504;2023-05-27T03:30:19;10.50;26.50
10192;DHT22;17580;50.850;4.504;2023-05-27T03:32:46;10.40;26.20
10192;DHT22;17580;50.850;4.504;2023-05-27T03:35:13;10.40;26.30
10192;DHT22;17580;50.850;4.504;2023-05-27T03:37:40;10.30;26.50
10192;DHT22;17580;50.850;4.504;2023-05-27T03:40:10;10.40;26.70
10192;DHT22;17580;50.850;4.504;2023-05-27T03:42:37;10.30;26.70
10192;DHT22;17580;50.850;4.504;2023-05-27T03:45:05;10.30;27.20
10192;DHT22;17580;50.850;4.504;2023-05-27T03:47:35;10.30;27.30
10192;DHT22;17580;50.850;4.504;2023-05-27T03:50:02;10.30;28.60
10192;DHT22;17580;50.850;4.504;2023-05-27T03:52:29;10.20;29.00
10192;DHT22;17580;50.850;4.504;2023-05-27T03:54:56;10.20;28.70
10192;DHT22;17580;50.850;4.504;2023-05-27T03:57:26;10.20;28.60
10192;DHT22;17580;50.850;4.504;2023-05-27T03:59:53;10.20;29.40
10192;DHT22;17580;50.850;4.504;2023-05-27T04:02:20;10.20;28.90
10192;DHT22;17580;50.850;4.504;2023-05-27T04:04:47;10.10;29.60
10192;DHT22;17580;50.850;4.504;2023-05-27T04:07:14;10.20;29.40
10192;DHT22;17580;50.850;4.504;2023-05-27T04:09:43;10.10;29.60
10192;DHT22;17580;50.850;4.504;2023-05-27T04:12:10;10.10;29.80
10192;DHT22;17580;50.850;4.504;2023-05-27T04:14:39;10.20;29.30
10192;DHT22;17580;50.850;4.504;2023-05-27T04:17:06;10.20;29.40
10192;DHT22;17580;50.850;4.504;2023-05-27T04:19:33;10.10;30.30
10192;DHT22;17580;50.850;4.504;2023-05-27T04:22:00;10.20;30.90
10192;DHT22;17580;50.850;4.504;2023-05-27T04:24:28;10.10;30.90
10192;DHT22;17580;50.850;4.504;2023-05-27T04:26:55;10.10;31.70
10192;DHT22;17580;50.850;4.504;2023-05-27T04:29:22;10.20;30.80
10192;DHT22;17580;50.850;4.504;2023-05-27T04:31:50;10.10;30.50
10192;DHT22;17580;50.850;4.504;2023-05-27T04:34:17;10.10;30.20
10192;DHT22;17580;50.850;4.504;2023-05-27T04:36:44;10.10;31.30
10192;DHT22;17580;50.850;4.504;2023-05-27T04:39:15;10.20;31.10
10192;DHT22;17580;50.850;4.504;2023-05-27T04:41:42;10.20;31.30
10192;DHT22;17580;50.850;4.504;2023-05-27T04:44:09;10.10;31.00
10192;DHT22;17580;50.850;4.504;2023-05-27T04:46:36;10.20;31.30
10192;DHT22;17580;50.850;4.504;2023-05-27T04:49:06;10.20;31.30
10192;DHT22;17580;50.850;4.504;2023-05-27T04:51:33;10.30;31.40
10192;DHT22;17580;50.850;4.504;2023-05-27T04:54:01;10.30;31.50
10192;DHT22;17580;50.850;4.504;2023-05-27T04:56:28;10.30;31.80
10192;DHT22;17580;50.850;4.504;2023-05-27T04:58:55;10.30;32.30
10192;DHT22;17580;50.850;4.504;2023-05-27T05:01:24;10.30;32.20
10192;DHT22;17580;50.850;4.504;2023-05-27T05:03:53;10.30;31.50
10192;DHT22;17580;50.850;4.504;2023-05-27T05:06:39;10.40;31.40
10192;DHT22;17580;50.850;4.504;2023-05-27T05:09:06;10.40;31.50
10192;DHT22;17580;50.850;4.504;2023-05-27T05:11:34;10.50;32.00
10192;DHT22;17580;50.850;4.504;2023-05-27T05:14:01;10.50;31.60
10192;DHT22;17580;50.850;4.504;2023-05-27T05:16:29;10.50;32.20
10192;DHT22;17580;50.850;4.504;2023-05-27T05:18:56;10.60;32.00
10192;DHT22;17580;50.850;4.504;2023-05-27T05:21:24;10.70;30.20
10192;DHT22;17580;50.850;4.504;2023-05-27T05:23:53;10.70;31.00
10192;DHT22;17580;50.850;4.504;2023-05-27T05:26:20;10.60;30.60
10192;DHT22;17580;50.850;4.504;2023-05-27T05:28:47;10.70;31.00
10192;DHT22;17580;50.850;4.504;2023-05-27T05:31:14;10.80;31.00
10192;DHT22;17580;50.850;4.504;2023-05-27T05:33:41;10.80;30.70
10192;DHT22;17580;50.850;4.504;2023-05-27T05:36:09;10.80;30.50
10192;DHT22;17580;50.850;4.504;2023-05-27T05:38:36;10.80;31.10
10192;DHT22;17580;50.850;4.504;2023-05-27T05:41:04;10.80;31.40
10192;DHT22;17580;50.850;4.504;2023-05-27T05:43:32;10.90;31.20
10192;DHT22;17580;50.850;4.504;2023-05-27T05:45:59;10.90;31.40
10192;DHT22;17580;50.850;4.504;2023-05-27T05:48:27;11.00;31.20
10192;DHT22;17580;50.850;4.504;2023-05-27T05:50:54;11.00;31.60
10192;DHT22;17580;50.850;4.504;2023-05-27T05:53:21;11.10;31.60
10192;DHT22;17580;50.850;4.504;2023-05-27T05:55:48;11.10;31.30
10192;DHT22;17580;50.850;4.504;2023-05-27T05:58:19;11.10;31.30
10192;DHT22;17580;50.850;4.504;2023-05-27T06:00:46;11.10;31.30
10192;DHT22;17580;50.850;4.504;2023-05-27T06:03:13;11.20;31.10
10192;DHT22;17580;50.850;4.504;2023-05-27T06:05:41;11.20;32.20
10192;DHT22;17580;50.850;4.504;2023-05-27T06:08:08;11.30;31.10
10192;DHT22;17580;50.850;4.504;2023-05-27T06:10:35;11.30;31.40
10192;DHT22;17580;50.850;4.504;2023-05-27T06:13:02;11.40;30.90
10192;DHT22;17580;50.850;4.504;2023-05-27T06:15:30;11.40;30.90
10192;DHT22;17580;50.850;4.504;2023-05-27T06:17:57;11.40;31.00
10192;DHT22;17580;50.850;4.504;2023-05-27T06:20:24;11.50;31.20
10192;DHT22;17580;50.850;4.504;2023-05-27T06:22:51;11.60;31.10
10192;DHT22;17580;50.850;4.504;2023-05-27T06:25:18;11.70;31.40
10192;DHT22;17580;50.850;4.504;2023-05-27T06:27:46;11.70;30.30
10192;DHT22;17580;50.850;4.504;2023-05-27T06:30:14;11.70;29.80
10192;DHT22;17580;50.850;4.504;2023-05-27T06:32:42;11.70;30.00
10192;DHT22;17580;50.850;4.504;2023-05-27T06:35:09;11.80;31.30
10192;DHT22;17580;50.850;4.504;2023-05-27T06:37:36;11.90;31.00
10192;DHT22;17580;50.850;4.504;2023-05-27T06:40:04;12.00;31.20
10192;DHT22;17580;50.850;4.504;2023-05-27T06:42:31;12.00;30.80
10192;DHT22;17580;50.850;4.504;2023-05-27T06:44:58;12.10;30.50
10192;DHT22;17580;50.850;4.504;2023-05-27T06:47:25;12.20;31.00
10192;DHT22;17580;50.850;4.504;2023-05-27T06:49:54;12.30;30.10
10192;DHT22;17580;50.850;4.504;2023-05-27T06:52:21;12.30;29.60
10192;DHT22;17580;50.850;4.504;2023-05-27T06:54:48;12.30;30.00
10192;DHT22;17580;50.850;4.504;2023-05-27T06:57:15;12.40;29.60
10192;DHT22;17580;50.850;4.504;2023-05-27T06:59:42;12.50;30.50
10192;DHT22;17580;50.850;4.504;2023-05-27T07:02:09;12.50;29.70
10192;DHT22;17580;50.850;4.504;2023-05-27T07:04:36;12.60;29.00
10192;DHT22;17580;50.850;4.504;2023-05-27T07:07:05;12.60;28.60
10192;DHT22;17580;50.850;4.504;2023-05-27T07:09:32;12.70;29.10
10192;DHT22;17580;50.850;4.504;2023-05-27T07:11:59;12.70;28.90
10192;DHT22;17580;50.850;4.504;2023-05-27T07:14:26;12.80;28.50
10192;DHT22;17580;50.850;4.504;2023-05-27T07:16:53;12.90;28.30
10192;DHT22;17580;50.850;4.504;2023-05-27T07:19:21;12.90;28.30
10192;DHT22;17580;50.850;4.504;2023-05-27T07:21:49;13.00;27.80
10192;DHT22;17580;50.850;4.504;2023-05-27T07:24:17;13.10;27.50
10192;DHT22;17580;50.850;4.504;2023-05-27T07:26:44;13.20;28.10
10192;DHT22;17580;50.850;4.504;2023-05-27T07:29:11;13.30;27.30
10192;DHT22;17580;50.850;4.504;2023-05-27T07:31:38;13.40;26.80
10192;DHT22;17580;50.850;4.504;2023-05-27T07:34:05;13.50;27.10
10192;DHT22;17580;50.850;4.504;2023-05-27T07:36:32;13.60;27.90
10192;DHT22;17580;50.850;4.504;2023-05-27T07:38:59;13.70;27.50
10192;DHT22;17580;50.850;4.504;2023-05-27T07:41:28;13.80;28.00
10192;DHT22;17580;50.850;4.504;2023-05-27T07:43:55;13.90;27.00
10192;DHT22;17580;50.850;4.504;2023-05-27T07:46:23;14.00;26.60
10192;DHT22;17580;50.850;4.504;2023-05-27T07:48:50;14.00;27.40
10192;DHT22;17580;50.850;4.504;2023-05-27T07:51:17;14.10;25.90
10192;DHT22;17580;50.850;4.504;2023-05-27T07:53:44;14.10;26.70
10192;DHT22;17580;50.850;4.504;2023-05-27T07:56:13;14.20;26.20
10192;DHT22;17580;50.850;4.504;2023-05-27T07:58:42;14.30;25.50
10192;DHT22;17580;50.850;4.504;2023-05-27T08:01:09;14.30;25.40
10192;DHT22;17580;50.850;4.504;2023-05-27T08:03:36;14.40;24.90
10192;DHT22;17580;50.850;4.504;2023-05-27T08:06:03;14.40;24.50
10192;DHT22;17580;50.850;4.504;2023-05-27T08:08:30;14.50;25.20
10192;DHT22;17580;50.850;4.504;2023-05-27T08:10:57;14.60;25.50
10192;DHT22;17580;50.850;4.504;2023-05-27T08:13:24;14.70;24.90
10192;DHT22;17580;50.850;4.504;2023-05-27T08:15:53;14.80;24.70
10192;DHT22;17580;50.850;4.504;2023-05-27T08:18:20;14.90;24.60
10192;DHT22;17580;50.850;4.504;2023-05-27T08:20:47;15.00;23.90
10192;DHT22;17580;50.850;4.504;2023-05-27T08:23:15;15.10;24.50
10192;DHT22;17580;50.850;4.504;2023-05-27T08:25:42;15.10;23.00
10192;DHT22;17580;50.850;4.504;2023-05-27T08:28:09;15.20;23.40
10192;DHT22;17580;50.850;4.504;2023-05-27T08:30:36;15.30;23.20
10192;DHT22;17580;50.850;4.504;2023-05-27T08:33:05;15.30;22.70
10192;DHT22;17580;50.850;4.504;2023-05-27T08:35:32;15.40;23.60
10192;DHT22;17580;50.850;4.504;2023-05-27T08:37:59;15.50;23.50
10192;DHT22;17580;50.850;4.504;2023-05-27T08:40:26;15.50;23.80
10192;DHT22;17580;50.850;4.504;2023-05-27T08:42:54;15.60;23.10
10192;DHT22;17580;50.850;4.504;2023-05-27T08:45:21;15.70;22.60
10192;DHT22;17580;50.850;4.504;2023-05-27T08:47:49;15.70;22.30
10192;DHT22;17580;50.850;4.504;2023-05-27T08:50:19;15.80;22.70
10192;DHT22;17580;50.850;4.504;2023-05-27T08:52:49;15.80;22.30
10192;DHT22;17580;50.850;4.504;2023-05-27T08:55:20;16.00;23.10
10192;DHT22;17580;50.850;4.504;2023-05-27T08:57:50;16.00;21.90
10192;DHT22;17580;50.850;4.504;2023-05-27T09:00:18;16.20;21.90
10192;DHT22;17580;50.850;4.504;2023-05-27T09:02:45;16.30;21.30
10192;DHT22;17580;50.850;4.504;2023-05-27T09:05:13;16.50;20.80
10192;DHT22;17580;50.850;4.504;2023-05-27T09:07:43;16.60;20.80
10192;DHT22;17580;50.850;4.504;2023-05-27T09:10:10;16.90;20.60
10192;DHT22;17580;50.850;4.504;2023-05-27T09:12:37;18.20;20.40
10192;DHT22;17580;50.850;4.504;2023-05-27T09:15:05;19.40;17.80
10192;DHT22;17580;50.850;4.504;2023-05-27T09:17:32;20.50;16.60
10192;DHT22;17580;50.850;4.504;2023-05-27T09:19:59;21.40;13.50
10192;DHT22;17580;50.850;4.504;2023-05-27T09:22:29;22.10;11.30
10192;DHT22;17580;50.850;4.504;2023-05-27T09:24:58;22.70;10.10
10192;DHT22;17580;50.850;4.504;2023-05-27T09:27:25;23.40;8.30
10192;DHT22;17580;50.850;4.504;2023-05-27T09:29:53;23.80;6.40
10192;DHT22;17580;50.850;4.504;2023-05-27T09:32:24;24.20;6.00
10192;DHT22;17580;50.850;4.504;2023-05-27T09:34:52;24.80;4.60
10192;DHT22;17580;50.850;4.504;2023-05-27T09:37:23;25.10;3.00
10192;DHT22;17580;50.850;4.504;2023-05-27T09:39:52;25.20;1.00
10192;DHT22;17580;50.850;4.504;2023-05-27T09:42:20;25.50;1.00
10192;DHT22;17580;50.850;4.504;2023-05-27T09:44:47;25.90;1.30
10192;DHT22;17580;50.850;4.504;2023-05-27T09:47:16;26.20;1.00
10192;DHT22;17580;50.850;4.504;2023-05-27T09:49:45;26.50;1.00
10192;DHT22;17580;50.850;4.504;2023-05-27T09:52:15;26.90;1.00
10192;DHT22;17580;50.850;4.504;2023-05-27T09:54:47;26.90;1.00
10192;DHT22;17580;50.850;4.504;2023-05-27T09:57:15;27.20;1.00
10192;DHT22;17580;50.850;4.504;2023-05-27T09:59:45;27.00;1.00
10192;DHT22;17580;50.850;4.504;2023-05-27T10:02:16;27.20;1.00
10192;DHT22;17580;50.850;4.504;2023-05-27T10:04:44;27.40;1.00
10192;DHT22;17580;50.850;4.504;2023-05-27T10:07:16;27.60;1.00
10192;DHT22;17580;50.850;4.504;2023-05-27T10:09:45;28.00;1.00
10192;DHT22;17580;50.850;4.504;2023-05-27T10:12:14;28.20;1.00
10192;DHT22;17580;50.850;4.504;2023-05-27T10:14:42;28.30;1.00
10192;DHT22;17580;50.850;4.504;2023-05-27T10:17:12;28.50;1.00
10192;DHT22;17580;50.850;4.504;2023-05-27T10:19:53;28.40;1.00
10192;DHT22;17580;50.850;4.504;2023-05-27T10:22:21;28.80;1.00
10192;DHT22;17580;50.850;4.504;2023-05-27T10:24:49;28.80;1.00
10192;DHT22;17580;50.850;4.504;2023-05-27T10:27:19;29.10;1.00
10192;DHT22;17580;50.850;4.504;2023-05-27T10:29:57;29.20;1.00
10192;DHT22;17580;50.850;4.504;2023-05-27T10:32:26;29.40;1.00
10192;DHT22;17580;50.850;4.504;2023-05-27T10:34:54;29.60;1.00
10192;DHT22;17580;50.850;4.504;2023-05-27T10:37:21;29.60;1.00
10192;DHT22;17580;50.850;4.504;2023-05-27T10:39:55;29.90;1.00
10192;DHT22;17580;50.850;4.504;2023-05-27T10:42:22;29.90;1.00
10192;DHT22;17580;50.850;4.504;2023-05-27T10:44:49;30.10;1.00
10192;DHT22;17580;50.850;4.504;2023-05-27T10:47:35;30.10;1.00
10192;DHT22;17580;50.850;4.504;2023-05-27T10:50:13;29.90;1.00
10192;DHT22;17580;50.850;4.504;2023-05-27T10:52:41;29.90;1.00
10192;DHT22;17580;50.850;4.504;2023-05-27T10:55:08;30.00;1.00
10192;DHT22;17580;50.850;4.504;2023-05-27T10:57:35;30.00;1.00
10192;DHT22;17580;50.850;4.504;2023-05-27T11:00:04;30.10;1.00
10192;DHT22;17580;50.850;4.504;2023-05-27T11:02:38;30.10;1.00
10192;DHT22;17580;50.850;4.504;2023-05-27T11:05:10;30.00;1.00
10192;DHT22;17580;50.850;4.504;2023-05-27T11:07:37;30.00;1.00
10192;DHT22;17580;50.850;4.504;2023-05-27T11:10:06;30.20;1.00
10192;DHT22;17580;50.850;4.504;2023-05-27T11:12:34;30.30;1.00
10192;DHT22;17580;50.850;4.504;2023-05-27T11:15:01;30.30;1.00
10192;DHT22;17580;50.850;4.504;2023-05-27T11:17:28;30.40;1.00
10192;DHT22;17580;50.850;4.504;2023-05-27T11:19:58;30.20;1.00
10192;DHT22;17580;50.850;4.504;2023-05-27T11:22:25;30.50;1.00
10192;DHT22;17580;50.850;4.504;2023-05-27T11:24:56;30.70;1.00
10192;DHT22;17580;50.850;4.504;2023-05-27T11:27:23;30.90;1.00
10192;DHT22;17580;50.850;4.504;2023-05-27T11:29:51;30.90;1.00
10192;DHT22;17580;50.850;4.504;2023-05-27T11:32:19;30.90;1.00
10192;DHT22;17580;50.850;4.504;2023-05-27T11:34:47;31.00;1.00
10192;DHT22;17580;50.850;4.504;2023-05-27T11:37:16;31.00;1.00
10192;DHT22;17580;50.850;4.504;2023-05-27T11:39:50;30.90;1.00
10192;DHT22;17580;50.850;4.504;2023-05-27T11:42:21;30.90;1.00
10192;DHT22;17580;50.850;4.504;2023-05-27T11:44:50;30.70;1.00
10192;DHT22;17580;50.850;4.504;2023-05-27T11:47:18;30.70;1.00
10192;DHT22;17580;50.850;4.504;2023-05-27T11:49:46;30.90;1.00
10192;DHT22;17580;50.850;4.504;2023-05-27T11:52:15;30.90;1.00
10192;DHT22;17580;50.850;4.504;2023-05-27T11:54:42;30.80;1.00
10192;DHT22;17580;50.850;4.504;2023-05-27T11:57:10;30.60;1.00
10192;DHT22;17580;50.850;4.504;2023-05-27T11:59:37;30.70;1.00
10192;DHT22;17580;50.850;4.504;2023-05-27T12:02:04;30.50;1.00
10192;DHT22;17580;50.850;4.504;2023-05-27T12:04:32;30.60;1.00
10192;DHT22;17580;50.850;4.504;2023-05-27T12:07:00;30.70;1.00
10192;DHT22;17580;50.850;4.504;2023-05-27T12:09:29;30.60;1.00
10192;DHT22;17580;50.850;4.504;2023-05-27T12:11:56;30.70;1.00
10192;DHT22;17580;50.850;4.504;2023-05-27T12:14:23;30.60;1.00
10192;DHT22;17580;50.850;4.504;2023-05-27T12:16:50;30.50;1.00
10192;DHT22;17580;50.850;4.504;2023-05-27T12:19:17;30.40;1.00
10192;DHT22;17580;50.850;4.504;2023-05-27T12:21:44;30.20;1.00
10192;DHT22;17580;50.850;4.504;2023-05-27T12:24:14;30.40;1.00
10192;DHT22;17580;50.850;4.504;2023-05-27T12:26:43;30.50;1.00
10192;DHT22;17580;50.850;4.504;2023-05-27T12:29:10;30.60;1.00
10192;DHT22;17580;50.850;4.504;2023-05-27T12:31:37;30.30;1.00
10192;DHT22;17580;50.850;4.504;2023-05-27T12:34:04;30.30;1.00
10192;DHT22;17580;50.850;4.504;2023-05-27T12:36:31;30.20;1.00
10192;DHT22;17580;50.850;4.504;2023-05-27T12:38:59;30.20;1.00
10192;DHT22;17580;50.850;4.504;2023-05-27T12:41:26;30.20;1.00
10192;DHT22;17580;50.850;4.504;2023-05-27T12:43:54;29.90;1.00
10192;DHT22;17580;50.850;4.504;2023-05-27T12:46:21;29.70;1.00
10192;DHT22;17580;50.850;4.504;2023-05-27T12:48:49;29.60;1.00
10192;DHT22;17580;50.850;4.504;2023-05-27T12:51:16;29.60;1.00
10192;DHT22;17580;50.850;4.504;2023-05-27T12:53:43;29.50;1.00
10192;DHT22;17580;50.850;4.504;2023-05-27T12:56:10;29.30;1.00
10192;DHT22;17580;50.850;4.504;2023-05-27T12:58:37;29.20;1.00
10192;DHT22;17580;50.850;4.504;2023-05-27T13:01:05;28.80;1.00
10192;DHT22;17580;50.850;4.504;2023-05-27T13:03:32;28.40;1.00
10192;DHT22;17580;50.850;4.504;2023-05-27T13:05:59;28.10;1.00
10192;DHT22;17580;50.850;4.504;2023-05-27T13:08:26;27.90;1.00
10192;DHT22;17580;50.850;4.504;2023-05-27T13:10:53;27.50;1.00
10192;DHT22;17580;50.850;4.504;2023-05-27T13:13:21;27.50;1.00
10192;DHT22;17580;50.850;4.504;2023-05-27T13:15:48;27.40;1.00
10192;DHT22;17580;50.850;4.504;2023-05-27T13:18:16;27.20;1.00
10192;DHT22;17580;50.850;4.504;2023-05-27T13:20:43;27.10;1.00
10192;DHT22;17580;50.850;4.504;2023-05-27T13:23:10;27.10;1.00
10192;DHT22;17580;50.850;4.504;2023-05-27T13:25:37;27.00;1.00
10192;DHT22;17580;50.850;4.504;2023-05-27T13:28:04;27.00;1.00
10192;DHT22;17580;50.850;4.504;2023-05-27T13:30:31;27.00;1.00
10192;DHT22;17580;50.850;4.504;2023-05-27T13:32:58;27.00;1.00
10192;DHT22;17580;50.850;4.504;2023-05-27T13:35:27;27.00;1.00
10192;DHT22;17580;50.850;4.504;2023-05-27T13:37:55;26.90;1.00
10192;DHT22;17580;50.850;4.504;2023-05-27T13:40:25;26.70;1.00
10192;DHT22;17580;50.850;4.504;2023-05-27T13:42:53;26.60;1.00
10192;DHT22;17580;50.850;4.504;2023-05-27T13:45:20;26.50;1.00
10192;DHT22;17580;50.850;4.504;2023-05-27T13:47:47;26.40;1.00
10192;DHT22;17580;50.850;4.504;2023-05-27T13:50:16;26.30;1.00
10192;DHT22;17580;50.850;4.504;2023-05-27T13:52:46;26.10;1.00
10192;DHT22;17580;50.850;4.504;2023-05-27T13:55:13;26.20;1.00
10192;DHT22;17580;50.850;4.504;2023-05-27T13:57:40;26.20;1.00
10192;DHT22;17580;50.850;4.504;2023-05-27T14:00:09;26.20;1.00
10192;DHT22;17580;50.850;4.504;2023-05-27T14:02:36;26.20;1.00
10192;DHT22;17580;50.850;4.504;2023-05-27T14:05:04;26.00;1.00
10192;DHT22;17580;50.850;4.504;2023-05-27T14:07:32;25.80;1.00
10192;DHT22;17580;50.850;4.504;2023-05-27T14:10:00;25.70;1.00
10192;DHT22;17580;50.850;4.504;2023-05-27T14:12:27;25.80;1.00
10192;DHT22;17580;50.850;4.504;2023-05-27T14:14:54;25.90;1.00
10192;DHT22;17580;50.850;4.504;2023-05-27T14:17:22;25.90;1.00
10192;DHT22;17580;50.850;4.504;2023-05-27T14:19:49;25.90;1.00
10192;DHT22;17580;50.850;4.504;2023-05-27T14:22:16;26.00;1.00
10192;DHT22;17580;50.850;4.504;2023-05-27T14:24:43;26.00;1.00
10192;DHT22;17580;50.850;4.504;2023-05-27T14:27:11;26.00;1.00
10192;DHT22;17580;50.850;4.504;2023-05-27T14:29:38;25.90;1.00
10192;DHT22;17580;50.850;4.504;2023-05-27T14:32:06;25.70;1.00
10192;DHT22;17580;50.850;4.504;2023-05-27T14:34:33;25.70;1.00
10192;DHT22;17580;50.850;4.504;2023-05-27T14:37:00;25.70;1.00
10192;DHT22;17580;50.850;4.504;2023-05-27T14:39:27;25.60;1.00
10192;DHT22;17580;50.850;4.504;2023-05-27T14:41:54;25.60;1.00
10192;DHT22;17580;50.850;4.504;2023-05-27T14:44:23;25.60;1.00
10192;DHT22;17580;50.850;4.504;2023-05-27T14:46:50;25.60;1.00
10192;DHT22;17580;50.850;4.504;2023-05-27T14:49:17;25.50;1.00
10192;DHT22;17580;50.850;4.504;2023-05-27T14:51:44;25.50;1.00
10192;DHT22;17580;50.850;4.504;2023-05-27T14:54:11;25.40;1.00
10192;DHT22;17580;50.850;4.504;2023-05-27T14:56:38;25.30;1.00
10192;DHT22;17580;50.850;4.504;2023-05-27T14:59:05;25.20;1.00
10192;DHT22;17580;50.850;4.504;2023-05-27T15:01:34;25.10;1.00
10192;DHT22;17580;50.850;4.504;2023-05-27T15:04:01;25.00;1.00
10192;DHT22;17580;50.850;4.504;2023-05-27T15:06:28;24.90;1.00
10192;DHT22;17580;50.850;4.504;2023-05-27T15:08:56;24.70;1.00
10192;DHT22;17580;50.850;4.504;2023-05-27T15:11:23;24.60;1.00
10192;DHT22;17580;50.850;4.504;2023-05-27T15:13:53;24.60;1.00
10192;DHT22;17580;50.850;4.504;2023-05-27T15:16:21;24.60;1.00
10192;DHT22;17580;50.850;4.504;2023-05-27T15:18:49;24.60;1.00
10192;DHT22;17580;50.850;4.504;2023-05-27T15:21:16;24.60;1.00
10192;DHT22;17580;50.850;4.504;2023-05-27T15:23:43;24.60;1.00
10192;DHT22;17580;50.850;4.504;2023-05-27T15:26:10;24.60;1.00
10192;DHT22;17580;50.850;4.504;2023-05-27T15:28:38;24.50;1.00
10192;DHT22;17580;50.850;4.504;2023-05-27T15:31:05;24.40;1.00
10192;DHT22;17580;50.850;4.504;2023-05-27T15:33:34;24.30;1.00
10192;DHT22;17580;50.850;4.504;2023-05-27T15:36:03;24.30;1.00
10192;DHT22;17580;50.850;4.504;2023-05-27T15:38:30;24.20;1.00
10192;DHT22;17580;50.850;4.504;2023-05-27T15:40:57;24.10;1.00